Time;durP1;ratioP1;P1;durP2;ratioP2;P2;SDS_P1;SDS_P2;PMS_P1;PMS_P2;Temp;Humidity;BMP_temperature;BMP_pressure;BME280_temperature;BME280_humidity;BME280_pressure;Samples;Min_cycle;Max_cycle;Signal;HPM_P1;HPM_P2
2022/11/29 00:00:32;;;;;;;5.57;3.20;;;23.50;99.90;;;;;;5034635;28;20041;-54
2022/11/29 00:02:58;;;;;;;4.72;3.15;;;23.50;99.90;;;;;;5035120;28;20513;-54
2022/11/29 00:05:24;;;;;;;7.15;3.63;;;23.50;99.90;;;;;;5034693;28;20520;-54
2022/11/29 00:07:50;;;;;;;5.13;3.58;;;23.50;99.90;;;;;;5033442;28;20029;-54
2022/11/29 00:10:16;;;;;;;6.50;3.08;;;23.50;99.90;;;;;;5034693;28;20410;-55
2022/11/29 00:12:41;;;;;;;4.82;3.20;;;23.50;99.90;;;;;;5034360;28;20068;-55
2022/11/29 00:15:07;;;;;;;5.47;3.20;;;23.40;99.90;;;;;;5034389;28;20055;-55
2022/11/29 00:17:33;;;;;;;5.55;3.40;;;23.40;99.90;;;;;;5034379;28;20038;-54
2022/11/29 00:19:59;;;;;;;6.72;3.92;;;23.40;99.90;;;;;;5033665;28;20021;-55
2022/11/29 00:22:24;;;;;;;5.63;3.58;;;23.40;99.90;;;;;;5034362;28;20018;-57
2022/11/29 00:24:51;;;;;;;4.72;3.38;;;23.30;99.90;;;;;;5034419;28;20469;-54
2022/11/29 00:27:17;;;;;;;7.43;4.18;;;23.30;99.90;;;;;;5035146;28;20021;-54
2022/11/29 00:29:43;;;;;;;4.63;3.30;;;23.30;99.90;;;;;;5034529;28;20060;-54
2022/11/29 00:32:09;;;;;;;5.53;3.80;;;23.30;99.90;;;;;;5034061;28;20112;-55
2022/11/29 00:34:35;;;;;;;4.93;3.55;;;23.30;99.90;;;;;;5032787;28;20029;-55
2022/11/29 00:37:01;;;;;;;6.22;3.90;;;23.30;99.90;;;;;;5034360;28;20029;-55
2022/11/29 00:39:26;;;;;;;6.35;4.00;;;23.30;99.90;;;;;;5034001;28;20068;-55
2022/11/29 00:41:52;;;;;;;5.43;3.60;;;23.20;99.90;;;;;;5033990;28;20096;-52
2022/11/29 00:44:18;;;;;;;6.10;3.58;;;23.20;99.90;;;;;;5033874;28;20428;-56
2022/11/29 00:46:44;;;;;;;5.05;3.47;;;23.20;99.90;;;;;;5033884;28;20064;-54
2022/11/29 00:49:09;;;;;;;5.90;3.63;;;23.20;99.90;;;;;;5021399;28;20383;-55
2022/11/29 00:51:35;;;;;;;5.28;3.75;;;23.20;99.90;;;;;;5030867;28;20064;-55
2022/11/29 00:54:01;;;;;;;7.05;4.05;;;23.20;99.90;;;;;;5034117;28;20382;-55
2022/11/29 00:56:27;;;;;;;6.22;3.50;;;23.20;99.90;;;;;;5033666;28;20064;-55
2022/11/29 00:58:52;;;;;;;4.80;3.78;;;23.20;99.90;;;;;;5034056;28;20026;-54
2022/11/29 01:01:18;;;;;;;5.78;3.47;;;23.10;99.90;;;;;;5033526;28;20060;-55
2022/11/29 01:03:44;;;;;;;6.70;3.67;;;23.20;99.90;;;;;;5033619;28;20037;-55
2022/11/29 01:06:13;;;;;;;6.70;3.60;;;23.10;99.90;;;;;;5033364;28;20025;-55
2022/11/29 01:08:39;;;;;;;5.78;3.92;;;23.10;99.90;;;;;;5033379;28;20036;-55
2022/11/29 01:11:07;;;;;;;5.55;3.80;;;23.10;99.90;;;;;;5033310;28;20033;-53
2022/11/29 01:13:33;;;;;;;5.88;3.63;;;23.10;99.90;;;;;;5033730;28;20026;-54
2022/11/29 01:15:59;;;;;;;6.45;4.18;;;23.10;99.90;;;;;;5033258;28;20443;-54
2022/11/29 01:18:25;;;;;;;6.13;3.88;;;23.00;99.90;;;;;;5033024;28;20664;-54
2022/11/29 01:21:09;;;;;;;6.35;3.53;;;23.00;99.90;;;;;;5033136;28;20017;-55
2022/11/29 01:23:36;;;;;;;5.97;3.55;;;23.00;99.90;;;;;;5033443;28;20021;-54
2022/11/29 01:26:07;;;;;;;6.57;4.10;;;23.00;99.90;;;;;;5033348;28;20112;-54
2022/11/29 01:28:34;;;;;;;7.68;4.20;;;23.00;99.90;;;;;;5033312;28;20120;-54
2022/11/29 01:31:12;;;;;;;6.78;3.92;;;23.00;99.90;;;;;;5033082;28;20404;-54
2022/11/29 01:33:37;;;;;;;5.07;3.83;;;23.00;99.90;;;;;;5033104;28;20021;-54
2022/11/29 01:36:05;;;;;;;4.72;3.58;;;23.00;99.90;;;;;;5032976;28;20037;-54
2022/11/29 01:38:31;;;;;;;7.35;4.18;;;22.90;99.90;;;;;;5032711;28;20441;-54
2022/11/29 01:41:04;;;;;;;4.97;3.58;;;22.90;99.90;;;;;;5032909;28;20033;-54
2022/11/29 01:43:31;;;;;;;4.97;3.38;;;22.90;99.90;;;;;;5032932;28;20025;-54
2022/11/29 01:45:57;;;;;;;5.57;3.58;;;22.90;99.90;;;;;;5032558;28;20044;-54
2022/11/29 01:48:31;;;;;;;6.07;3.65;;;22.80;99.90;;;;;;5032996;28;21130;-54
2022/11/29 01:50:59;;;;;;;5.70;3.42;;;22.90;99.90;;;;;;5032721;28;20120;-53
2022/11/29 01:53:26;;;;;;;5.60;3.50;;;22.90;99.90;;;;;;5032584;28;20056;-53
2022/11/29 01:55:59;;;;;;;5.68;3.92;;;22.80;99.90;;;;;;5032732;28;20016;-53
2022/11/29 01:58:25;;;;;;;5.97;3.53;;;22.80;99.90;;;;;;5032584;28;20032;-54
2022/11/29 02:00:51;;;;;;;5.85;3.17;;;22.80;99.90;;;;;;5033037;28;20441;-54
2022/11/29 02:03:18;;;;;;;5.38;3.78;;;22.80;99.90;;;;;;5032471;28;20025;-55
2022/11/29 02:05:47;;;;;;;6.88;4.03;;;22.80;99.90;;;;;;5032577;28;20468;-55
2022/11/29 02:08:19;;;;;;;3.60;2.80;;;22.80;99.90;;;;;;5032494;28;20037;-55
2022/11/29 02:11:06;;;;;;;4.85;3.33;;;22.80;99.90;;;;;;5032322;28;20052;-54
2022/11/29 02:13:53;;;;;;;6.22;3.20;;;22.80;99.90;;;;;;5018914;28;20104;-54
2022/11/29 02:16:33;;;;;;;4.70;3.03;;;22.80;99.90;;;;;;5032201;28;20469;-54
2022/11/29 02:20:05;;;;;;;6.15;3.50;;;22.70;99.90;;;;;;5032364;28;20032;-53
2022/11/29 02:22:34;;;;;;;4.80;2.78;;;22.70;99.90;;;;;;4978786;28;20394;-55
2022/11/29 02:25:21;;;;;;;5.50;3.60;;;22.70;99.90;;;;;;5032144;28;20033;-56
2022/11/29 02:28:17;;;;;;;4.63;3.20;;;22.70;99.90;;;;;;5032237;28;20036;-55
2022/11/29 02:31:13;;;;;;;5.35;3.20;;;22.70;99.90;;;;;;5031176;28;20053;-57
2022/11/29 02:34:15;;;;;;;4.40;3.15;;;22.70;99.90;;;;;;5032085;28;20041;-56
2022/11/29 02:36:47;;;;;;;6.85;2.97;;;22.70;99.90;;;;;;5021013;28;20022;-56
2022/11/29 02:39:38;;;;;;;3.72;2.80;;;22.60;99.90;;;;;;5032018;28;20532;-56
2022/11/29 02:42:25;;;;;;;5.03;2.90;;;22.60;99.90;;;;;;5032017;28;20026;-55
2022/11/29 02:45:32;;;;;;;4.25;2.85;;;22.60;99.90;;;;;;5032031;28;20025;-55
2022/11/29 02:47:58;;;;;;;;;;;22.60;99.90;;;;;;5032145;28;20096;-54
2022/11/29 02:50:29;;;;;;;4.82;3.25;;;22.60;99.90;;;;;;5031933;28;19913;-55
2022/11/29 02:52:58;;;;;;;4.93;3.25;;;22.60;99.90;;;;;;5031947;28;20073;-54
2022/11/29 02:55:48;;;;;;;5.47;3.03;;;22.60;99.90;;;;;;5031856;28;20017;-54
2022/11/29 02:58:24;;;;;;;5.63;2.90;;;22.60;99.90;;;;;;5024420;28;20452;-54
2022/11/29 03:01:39;;;;;;;6.97;3.40;;;22.60;99.90;;;;;;5032155;28;20429;-54
2022/11/29 03:04:20;;;;;;;4.38;2.90;;;22.60;99.90;;;;;;5016642;28;20404;-55
2022/11/29 03:07:23;;;;;;;4.85;2.90;;;22.60;99.90;;;;;;5032191;28;20021;-56
2022/11/29 03:10:07;;;;;;;5.70;2.80;;;22.50;99.90;;;;;;5031578;28;20104;-55
2022/11/29 03:12:39;;;;;;;5.10;2.95;;;22.50;99.90;;;;;;5031742;28;20397;-55
2022/11/29 03:15:32;;;;;;;6.40;3.25;;;22.50;99.90;;;;;;5031578;28;20030;-55
2022/11/29 03:18:29;;;;;;;4.80;2.80;;;22.50;99.90;;;;;;5032010;28;20041;-55
2022/11/29 03:21:13;;;;;;;5.43;3.13;;;22.50;99.90;;;;;;5017991;28;20024;-52
2022/11/29 03:23:46;;;;;;;5.97;3.03;;;22.50;99.90;;;;;;5031660;28;20100;-56
2022/11/29 03:26:35;;;;;;;5.60;2.88;;;22.50;99.90;;;;;;5031638;28;20033;-53
2022/11/29 03:29:17;;;;;;;10.05;4.90;;;22.50;99.90;;;;;;5031510;28;20386;-52
2022/11/29 03:32:21;;;;;;;7.00;3.30;;;22.50;99.90;;;;;;5031488;28;20040;-52
2022/11/29 03:35:14;;;;;;;6.57;3.00;;;22.50;99.90;;;;;;5019252;28;20018;-52
2022/11/29 03:37:54;;;;;;;6.18;3.25;;;22.50;99.90;;;;;;5031559;28;20041;-52
2022/11/29 03:40:32;;;;;;;5.45;2.90;;;22.50;99.90;;;;;;5031446;28;20033;-53
2022/11/29 03:43:13;;;;;;;6.13;3.15;;;22.50;99.90;;;;;;5035409;28;20454;-52
2022/11/29 03:46:01;;;;;;;7.05;2.92;;;22.50;99.90;;;;;;5034751;28;20010;-52
2022/11/29 03:48:35;;;;;;;6.07;3.10;;;22.50;99.90;;;;;;5035198;28;20029;-53
2022/11/29 03:51:33;;;;;;;5.35;3.30;;;22.50;99.90;;;;;;5034831;28;20025;-53
2022/11/29 03:54:08;;;;;;;6.32;3.60;;;22.50;99.90;;;;;;5013653;28;20041;-52
2022/11/29 03:56:37;;;;;;;4.93;2.72;;;22.40;99.90;;;;;;5032454;28;20112;-52
2022/11/29 03:59:28;;;;;;;4.13;3.08;;;22.40;99.90;;;;;;5032190;28;20021;-54
2022/11/29 04:02:11;;;;;;;7.40;3.40;;;22.40;99.90;;;;;;5032690;28;20038;-51
2022/11/29 04:05:01;;;;;;;5.60;2.88;;;22.40;99.90;;;;;;5032499;28;20048;-52
2022/11/29 04:07:44;;;;;;;5.30;3.13;;;22.40;99.90;;;;;;5032934;28;20025;-52
2022/11/29 04:10:39;;;;;;;6.38;3.15;;;22.40;99.90;;;;;;5019601;28;20018;-52
2022/11/29 04:13:07;;;;;;;8.52;3.40;;;22.40;99.90;;;;;;4995356;28;20521;-52
2022/11/29 04:16:01;;;;;;;7.03;2.95;;;22.40;99.90;;;;;;5032611;28;20022;-53
2022/11/29 04:18:58;;;;;;;4.78;2.55;;;22.40;99.90;;;;;;5032700;28;20561;-53
2022/11/29 04:21:44;;;;;;;7.37;3.10;;;22.40;99.90;;;;;;5033778;28;20118;-52
2022/11/29 04:24:12;;;;;;;8.20;3.03;;;22.40;99.90;;;;;;5034394;28;20255;-54
2022/11/29 04:27:04;;;;;;;5.63;2.80;;;22.40;99.90;;;;;;5034299;28;20048;-53
2022/11/29 04:29:36;;;;;;;9.00;2.58;;;22.40;99.90;;;;;;5018622;28;20040;-53
2022/11/29 04:32:21;;;;;;;5.75;3.28;;;22.30;99.90;;;;;;5034306;28;20037;-52
2022/11/29 04:34:56;;;;;;;7.00;2.75;;;22.40;99.90;;;;;;5034014;28;20009;-52
2022/11/29 04:37:59;;;;;;;5.85;3.35;;;22.30;99.90;;;;;;5034217;28;20025;-52
2022/11/29 04:40:42;;;;;;;5.50;2.70;;;22.30;99.90;;;;;;5024077;28;20024;-52
2022/11/29 04:43:45;;;;;;;5.72;3.00;;;22.30;99.90;;;;;;5033952;28;20029;-52
2022/11/29 04:46:20;;;;;;;6.22;2.80;;;22.30;99.90;;;;;;5033882;28;20029;-52
2022/11/29 04:48:59;;;;;;;6.53;3.22;;;22.30;99.90;;;;;;5020970;28;20022;-52
2022/11/29 04:51:44;;;;;;;7.43;3.25;;;22.30;99.90;;;;;;5018564;28;20026;-52
2022/11/29 04:54:18;;;;;;;5.22;2.85;;;22.30;99.90;;;;;;5033075;28;20025;-52
2022/11/29 04:57:21;;;;;;;5.60;3.30;;;22.30;99.90;;;;;;5027507;28;20138;-52
2022/11/29 05:00:06;;;;;;;5.63;3.33;;;22.30;99.90;;;;;;5012975;28;20041;-52
2022/11/29 05:02:34;;;;;;;6.38;2.92;;;22.30;99.90;;;;;;5034212;28;20386;-52
2022/11/29 05:05:15;;;;;;;4.70;2.70;;;22.20;99.90;;;;;;5033716;28;20033;-53
2022/11/29 05:08:08;;;;;;;6.35;2.97;;;22.20;99.90;;;;;;5033417;28;20493;-52
2022/11/29 05:11:03;;;;;;;7.25;3.25;;;22.20;99.90;;;;;;5022570;28;20121;-52
2022/11/29 05:13:45;;;;;;;6.28;3.88;;;22.20;99.90;;;;;;5030793;28;20042;-52
2022/11/29 05:16:17;;;;;;;6.63;3.40;;;22.20;99.90;;;;;;5033325;28;20485;-52
2022/11/29 05:19:10;;;;;;;6.80;2.88;;;22.20;99.90;;;;;;5033165;28;20486;-52
2022/11/29 05:21:49;;;;;;;4.45;2.97;;;22.20;99.90;;;;;;5033324;28;20129;-52
2022/11/29 05:24:50;;;;;;;5.57;2.80;;;22.20;99.90;;;;;;5033144;28;20024;-52
2022/11/29 05:27:34;;;;;;;6.45;3.33;;;22.20;99.90;;;;;;5016574;28;20029;-52
2022/11/29 05:30:14;;;;;;;6.40;2.80;;;22.20;99.90;;;;;;5036538;28;20022;-51
2022/11/29 05:32:56;;;;;;;5.97;3.33;;;22.20;99.90;;;;;;5032974;28;20029;-50
2022/11/29 05:35:59;;;;;;;5.50;3.08;;;22.20;99.90;;;;;;5032930;28;20414;-53
2022/11/29 05:39:14;;;;;;;5.93;3.10;;;22.20;99.90;;;;;;5032765;28;20029;-53
2022/11/29 05:41:54;;;;;;;5.45;3.20;;;22.10;99.90;;;;;;4975079;28;20030;-53
2022/11/29 05:44:32;;;;;;;7.82;3.53;;;22.10;99.90;;;;;;4991516;28;20030;-53
2022/11/29 05:47:04;;;;;;;8.32;4.07;;;22.10;99.90;;;;;;5020922;28;20037;-52
2022/11/29 05:49:48;;;;;;;7.55;4.15;;;22.10;99.90;;;;;;5024756;28;20414;-53
2022/11/29 05:52:38;;;;;;;5.70;3.83;;;22.10;99.90;;;;;;5028254;28;20041;-52
2022/11/29 05:55:21;;;;;;;7.10;3.92;;;22.10;99.90;;;;;;5033269;28;20381;-52
2022/11/29 05:58:16;;;;;;;7.72;3.63;;;22.10;99.90;;;;;;5019291;28;20056;-52
2022/11/29 06:00:57;;;;;;;5.60;3.45;;;22.10;99.90;;;;;;5032220;28;20041;-52
2022/11/29 06:03:28;;;;;;;4.85;3.45;;;22.10;99.90;;;;;;5020862;28;20066;-52
2022/11/29 06:06:02;;;;;;;5.80;3.17;;;22.10;99.90;;;;;;5028644;28;20025;-52
2022/11/29 06:08:49;;;;;;;5.63;3.65;;;22.10;99.90;;;;;;5031088;28;20036;-52
2022/11/29 06:11:35;;;;;;;4.68;3.42;;;22.10;99.90;;;;;;5032100;28;20052;-52
2022/11/29 06:14:32;;;;;;;6.03;3.80;;;22.10;99.90;;;;;;5032241;28;20030;-52
2022/11/29 06:17:25;;;;;;;6.55;4.03;;;22.00;99.90;;;;;;5026722;28;20501;-51
2022/11/29 06:20:13;;;;;;;7.68;3.72;;;22.00;99.90;;;;;;5016523;28;20434;-52
2022/11/29 06:23:09;;;;;;;5.53;3.75;;;22.00;99.90;;;;;;5021086;28;20048;-53
2022/11/29 06:26:08;;;;;;;4.57;3.50;;;22.00;99.90;;;;;;5032310;28;20064;-52
2022/11/29 06:28:39;;;;;;;6.35;3.60;;;22.00;99.90;;;;;;5032240;28;20687;-52
2022/11/29 06:31:11;;;;;;;5.68;3.65;;;22.00;99.90;;;;;;5024723;28;20030;-52
2022/11/29 06:33:55;;;;;;;5.72;3.50;;;22.00;99.90;;;;;;5025324;28;20033;-52
2022/11/29 06:36:23;;;;;;;6.07;3.38;;;22.00;99.90;;;;;;5017915;28;20028;-51
2022/11/29 06:38:49;;;;;;;6.97;3.95;;;22.00;99.90;;;;;;5032062;28;20402;-51
2022/11/29 06:41:21;;;;;;;7.28;4.32;;;22.00;99.90;;;;;;5031859;28;20025;-52
2022/11/29 06:43:47;;;;;;;6.93;3.70;;;21.90;99.90;;;;;;5031938;28;20025;-53
2022/11/29 06:46:32;;;;;;;7.82;3.35;;;22.00;99.90;;;;;;5031651;28;20030;-52
2022/11/29 06:49:05;;;;;;;6.70;3.90;;;21.90;99.90;;;;;;5031769;28;20009;-52
2022/11/29 06:51:44;;;;;;;7.60;3.45;;;21.90;99.90;;;;;;5031724;28;20478;-52
2022/11/29 06:54:25;;;;;;;6.35;3.65;;;21.90;99.90;;;;;;5032009;28;20033;-53
2022/11/29 06:56:58;;;;;;;6.78;3.65;;;21.90;99.90;;;;;;5031771;28;20601;-51
2022/11/29 06:59:55;;;;;;;5.22;3.20;;;21.90;99.90;;;;;;5031610;28;20039;-51
2022/11/29 07:02:42;;;;;;;9.40;3.70;;;21.90;99.90;;;;;;5031597;28;20037;-51
2022/11/29 07:05:29;;;;;;;8.43;3.90;;;21.90;99.90;;;;;;5031965;28;20377;-51
2022/11/29 07:08:09;;;;;;;8.93;4.00;;;21.90;99.90;;;;;;5031542;28;20112;-51
2022/11/29 07:10:38;;;;;;;5.78;3.65;;;21.90;99.90;;;;;;5031551;28;20412;-50
2022/11/29 07:13:04;;;;;;;10.88;4.50;;;21.90;99.90;;;;;;5031364;28;20037;-51
2022/11/29 07:15:30;;;;;;;6.35;3.83;;;21.80;99.90;;;;;;5031505;28;20018;-52
2022/11/29 07:18:08;;;;;;;4.82;3.22;;;21.80;99.90;;;;;;5035390;28;20049;-53
2022/11/29 07:20:57;;;;;;;6.93;4.38;;;21.80;99.90;;;;;;5035273;28;20101;-52
2022/11/29 07:23:51;;;;;;;8.57;3.55;;;21.80;99.90;;;;;;5035374;28;20025;-53
2022/11/29 07:26:24;;;;;;;5.30;3.80;;;21.80;99.90;;;;;;5023657;28;20360;-52
2022/11/29 07:28:50;;;;;;;7.75;3.67;;;21.80;99.90;;;;;;5035232;28;20531;-54
2022/11/29 07:31:40;;;;;;;7.78;3.80;;;21.80;99.90;;;;;;5035028;28;20038;-54
2022/11/29 07:34:15;;;;;;;7.45;3.50;;;21.80;99.90;;;;;;5035125;28;20032;-53
2022/11/29 07:36:48;;;;;;;6.60;3.80;;;21.80;99.90;;;;;;5035287;28;20013;-53
2022/11/29 07:39:20;;;;;;;6.53;3.47;;;21.90;99.90;;;;;;5035212;28;20362;-53
2022/11/29 07:42:15;;;;;;;4.88;3.33;;;21.90;99.90;;;;;;5035213;28;20029;-53
2022/11/29 07:45:11;;;;;;;6.80;3.65;;;21.90;99.90;;;;;;5031278;28;20462;-53
2022/11/29 07:47:36;;;;;;;6.90;3.17;;;21.90;99.90;;;;;;5022905;28;20033;-53
2022/11/29 07:50:03;;;;;;;5.43;3.95;;;21.90;99.90;;;;;;5034969;28;20025;-53
2022/11/29 07:52:29;;;;;;;6.60;3.00;;;22.00;99.90;;;;;;5034877;28;20030;-52
2022/11/29 07:54:55;;;;;;;7.90;3.35;;;22.00;99.90;;;;;;5034947;28;20037;-53
2022/11/29 07:57:21;;;;;;;5.95;3.55;;;22.00;99.90;;;;;;5034794;28;20033;-53
2022/11/29 07:59:47;;;;;;;7.07;3.45;;;22.10;99.90;;;;;;5034644;28;20065;-54
2022/11/29 08:02:12;;;;;;;8.75;3.88;;;22.10;99.90;;;;;;5020129;28;20069;-53
2022/11/29 08:04:45;;;;;;;6.70;3.28;;;22.10;99.90;;;;;;5034640;28;20024;-53
2022/11/29 08:07:10;;;;;;;6.75;4.00;;;22.20;99.90;;;;;;5034792;28;20025;-52
2022/11/29 08:09:36;;;;;;;7.90;3.70;;;22.20;99.90;;;;;;5034362;28;20026;-53
2022/11/29 08:12:02;;;;;;;5.97;3.15;;;22.30;99.90;;;;;;5026536;28;20490;-53
2022/11/29 08:14:32;;;;;;;8.00;3.65;;;22.30;99.90;;;;;;5027312;28;20021;-52
2022/11/29 08:16:57;;;;;;;6.85;3.42;;;22.30;99.90;;;;;;5034164;28;20017;-52
2022/11/29 08:19:23;;;;;;;5.13;3.35;;;22.40;99.90;;;;;;5034407;28;20030;-52
2022/11/29 08:21:50;;;;;;;7.97;3.75;;;22.40;99.90;;;;;;5034420;28;20022;-52
2022/11/29 08:24:16;;;;;;;7.53;3.47;;;22.40;99.90;;;;;;5034307;28;20014;-53
2022/11/29 08:26:41;;;;;;;7.45;3.65;;;22.50;99.90;;;;;;5034602;28;20274;-54
2022/11/29 08:29:07;;;;;;;9.10;3.55;;;22.50;99.90;;;;;;5033278;28;20414;-52
2022/11/29 08:31:33;;;;;;;5.60;3.38;;;22.50;99.90;;;;;;5034003;28;20026;-52
2022/11/29 08:33:59;;;;;;;6.30;3.60;;;22.50;99.90;;;;;;5034242;28;20079;-53
2022/11/29 08:36:25;;;;;;;5.97;3.35;;;22.60;99.90;;;;;;5033963;28;20509;-53
2022/11/29 08:38:51;;;;;;;5.20;3.20;;;22.60;99.90;;;;;;5034175;28;20371;-52
2022/11/29 08:41:16;;;;;;;6.95;3.70;;;22.60;99.90;;;;;;5034009;28;20026;-52
2022/11/29 08:43:43;;;;;;;5.72;2.90;;;22.60;99.90;;;;;;5033977;28;20140;-53
2022/11/29 08:46:09;;;;;;;26.60;3.55;;;22.70;99.90;;;;;;5012797;28;20454;-52
2022/11/29 08:48:35;;;;;;;9.45;3.28;;;22.70;99.90;;;;;;5029791;28;20029;-53
2022/11/29 08:51:03;;;;;;;7.78;3.30;;;22.70;99.90;;;;;;5033769;28;20056;-55
2022/11/29 08:53:41;;;;;;;6.70;3.33;;;22.80;99.90;;;;;;5033859;28;20052;-53
2022/11/29 08:56:13;;;;;;;8.98;4.57;;;22.80;99.90;;;;;;5033719;28;20025;-52
2022/11/29 08:58:39;;;;;;;7.82;3.63;;;22.80;99.90;;;;;;5033494;28;20023;-52
2022/11/29 09:01:15;;;;;;;9.35;3.35;;;22.90;99.90;;;;;;5033186;28;20037;-52
2022/11/29 09:06:28;;;;;;;5.03;3.40;;;23.00;99.90;;;;;;5033678;28;20035;-53
2022/11/29 09:08:55;;;;;;;5.93;3.55;;;23.00;99.90;;;;;;5032257;28;20060;-52
2022/11/29 09:11:22;;;;;;;5.55;3.10;;;23.00;99.90;;;;;;5033323;28;20116;-53
2022/11/29 09:13:51;;;;;;;5.13;3.30;;;23.10;99.90;;;;;;5033275;28;20021;-54
2022/11/29 09:16:21;;;;;;;8.13;3.55;;;23.10;99.90;;;;;;5033275;28;20030;-53
2022/11/29 09:18:51;;;;;;;7.60;4.10;;;23.10;99.90;;;;;;5033313;28;20036;-52
2022/11/29 09:21:17;;;;;;;5.57;3.45;;;23.20;99.90;;;;;;5033338;28;20053;-52
2022/11/29 09:23:44;;;;;;;8.38;4.07;;;23.20;99.90;;;;;;5033105;28;20028;-52
2022/11/29 09:26:15;;;;;;;6.35;3.92;;;23.20;99.90;;;;;;5033091;28;20094;-52
2022/11/29 09:28:41;;;;;;;9.82;3.85;;;23.20;99.90;;;;;;5031712;28;20029;-52
2022/11/29 09:31:12;;;;;;;6.78;4.00;;;23.30;99.90;;;;;;5032653;28;20218;-51
2022/11/29 09:33:38;;;;;;;5.55;3.65;;;23.30;99.90;;;;;;5032986;28;20078;-52
2022/11/29 09:36:06;;;;;;;9.52;4.72;;;23.30;99.90;;;;;;5017681;28;20034;-53
2022/11/29 09:38:33;;;;;;;9.00;4.88;;;23.40;99.90;;;;;;5030992;28;20021;-52
2022/11/29 09:41:31;;;;;;;7.88;4.72;;;23.40;99.90;;;;;;5032843;28;20088;-52
2022/11/29 09:44:00;;;;;;;7.80;4.65;;;23.50;99.90;;;;;;5032808;28;20018;-52
2022/11/29 09:46:55;;;;;;;8.43;4.75;;;23.50;99.90;;;;;;5032660;28;20032;-53
2022/11/29 09:49:47;;;;;;;8.90;4.75;;;23.60;99.90;;;;;;5032596;28;20032;-52
2022/11/29 09:52:51;;;;;;;7.65;4.80;;;23.60;99.90;;;;;;5032394;28;20060;-52
2022/11/29 09:55:35;;;;;;;14.05;5.63;;;23.60;99.90;;;;;;5010239;28;20369;-52
2022/11/29 09:58:02;;;;;;;8.35;4.63;;;23.70;99.90;;;;;;5020969;28;20492;-52
2022/11/29 10:00:31;;;;;;;8.48;5.45;;;23.80;99.90;;;;;;5031025;28;20485;-52
2022/11/29 10:03:17;;;;;;;10.02;5.35;;;23.80;99.90;;;;;;5031279;28;20036;-53
2022/11/29 10:05:48;;;;;;;8.45;5.03;;;23.90;99.90;;;;;;5032169;28;20481;-53
2022/11/29 10:08:24;;;;;;;10.35;6.38;;;23.90;99.90;;;;;;5032305;28;20033;-51
2022/11/29 10:10:56;;;;;;;8.93;5.60;;;24.00;99.90;;;;;;5032286;28;20021;-52
2022/11/29 10:13:28;;;;;;;7.75;5.38;;;24.10;99.90;;;;;;5032041;28;20033;-52
2022/11/29 10:16:05;;;;;;;8.10;5.32;;;24.10;99.90;;;;;;5032240;28;20057;-52
2022/11/29 10:18:48;;;;;;;9.43;6.38;;;24.10;99.90;;;;;;5032022;28;20493;-52
2022/11/29 10:21:24;;;;;;;9.68;5.40;;;24.20;99.90;;;;;;5020140;28;20486;-52
2022/11/29 10:23:58;;;;;;;12.93;6.65;;;24.30;99.90;;;;;;5030456;28;20103;-52
2022/11/29 10:26:24;;;;;;;11.70;6.28;;;24.40;99.90;;;;;;5032000;28;20029;-53
2022/11/29 10:28:50;;;;;;;8.30;5.75;;;24.40;99.90;;;;;;5032159;28;20052;-51
2022/11/29 10:31:20;;;;;;;10.80;6.15;;;24.50;99.90;;;;;;5031787;28;20022;-52
2022/11/29 10:33:47;;;;;;;11.73;6.22;;;24.50;99.90;;;;;;5018850;28;20025;-52
2022/11/29 10:36:24;;;;;;;9.45;5.93;;;24.50;99.90;;;;;;5030050;28;20022;-53
2022/11/29 10:38:55;;;;;;;8.43;6.35;;;24.60;99.90;;;;;;5032272;28;20040;-53
2022/11/29 10:41:22;;;;;;;11.82;6.20;;;24.60;99.90;;;;;;5032038;28;20032;-52
2022/11/29 10:43:50;;;;;;;7.77;6.00;;;24.70;99.90;;;;;;5030969;28;20049;-52
2022/11/29 10:46:24;;;;;;;9.55;6.03;;;24.70;99.90;;;;;;5017533;28;20462;-52
2022/11/29 10:48:50;;;;;;;8.27;5.65;;;24.80;99.90;;;;;;5030380;28;20462;-52
2022/11/29 10:51:17;;;;;;;8.25;5.80;;;24.90;99.90;;;;;;5032972;28;20051;-52
2022/11/29 10:53:45;;;;;;;10.23;5.55;;;24.90;99.90;;;;;;5035834;28;20056;-51
2022/11/29 10:56:29;;;;;;;8.55;5.97;;;24.90;99.90;;;;;;5035848;28;20033;-52
2022/11/29 10:59:02;;;;;;;8.75;5.95;;;25.00;99.90;;;;;;5035872;28;20029;-52
2022/11/29 11:01:30;;;;;;;7.72;5.78;;;25.00;99.90;;;;;;5035413;28;20051;-52
2022/11/29 11:03:59;;;;;;;9.90;6.15;;;25.00;99.90;;;;;;5035921;28;20026;-52
2022/11/29 11:06:42;;;;;;;9.60;6.45;;;25.10;99.90;;;;;;5035363;28;20021;-53
2022/11/29 11:09:36;;;;;;;10.55;6.28;;;25.10;99.90;;;;;;5035608;28;20108;-53
2022/11/29 11:12:07;;;;;;;9.68;6.30;;;25.20;99.90;;;;;;5020430;28;20079;-51
2022/11/29 11:14:37;;;;;;;8.98;6.45;;;25.20;99.90;;;;;;5035480;28;20651;-52
2022/11/29 11:17:30;;;;;;;8.75;6.45;;;25.30;99.90;;;;;;5035247;28;20029;-52
2022/11/29 11:20:09;;;;;;;10.00;6.88;;;25.30;99.90;;;;;;5035518;28;20029;-53
2022/11/29 11:22:38;;;;;;;8.77;6.68;;;25.30;99.90;;;;;;5035259;28;20041;-53
2022/11/29 11:25:23;;;;;;;13.07;7.75;;;25.40;99.90;;;;;;5035092;28;20022;-53
2022/11/29 11:27:49;;;;;;;10.85;7.65;;;25.40;99.90;;;;;;5035131;28;20052;-53
2022/11/29 11:30:25;;;;;;;10.75;7.55;;;25.40;99.90;;;;;;5035210;28;20029;-52
2022/11/29 11:33:13;;;;;;;11.18;8.07;;;25.40;99.90;;;;;;5035062;28;20033;-51
2022/11/29 11:35:39;;;;;;;11.50;8.00;;;25.50;99.90;;;;;;5035099;28;20079;-50
2022/11/29 11:38:15;;;;;;;11.55;7.97;;;25.50;99.90;;;;;;5035053;28;20021;-52
2022/11/29 11:40:41;;;;;;;11.15;7.72;;;25.60;99.90;;;;;;5034865;28;20045;-51
2022/11/29 11:43:19;;;;;;;14.02;8.32;;;25.60;99.90;;;;;;5035001;28;20358;-51
2022/11/29 11:45:52;;;;;;;12.50;8.90;;;25.60;99.90;;;;;;5013985;28;20115;-51
2022/11/29 11:48:18;;;;;;;12.38;8.70;;;25.70;99.90;;;;;;5025670;28;20108;-50
2022/11/29 11:50:51;;;;;;;13.05;8.75;;;25.70;99.90;;;;;;5034876;28;20105;-51
2022/11/29 11:53:35;;;;;;;15.35;9.10;;;25.70;99.90;;;;;;5034727;28;20053;-51
2022/11/29 11:56:08;;;;;;;14.27;8.38;;;25.80;99.90;;;;;;5034565;28;20116;-51
2022/11/29 11:58:42;;;;;;;10.70;8.30;;;25.70;99.90;;;;;;5034494;28;20056;-53
2022/11/29 12:01:29;;;;;;;12.75;9.18;;;25.80;99.90;;;;;;5034147;28;20037;-51
2022/11/29 12:04:02;;;;;;;;;;;25.80;99.90;;;;;;5017667;28;20080;-52
2022/11/29 12:06:30;;;;;;;14.00;9.55;;;25.80;99.90;;;;;;5034434;28;19905;-51
2022/11/29 12:09:05;;;;;;;12.77;10.00;;;25.80;99.90;;;;;;5034467;28;20025;-53
2022/11/29 12:12:08;;;;;;;21.42;9.52;;;25.90;99.90;;;;;;5034177;28;20033;-53
2022/11/29 12:14:58;;;;;;;15.00;9.23;;;25.90;99.90;;;;;;5000515;28;20393;-53
2022/11/29 12:17:38;;;;;;;5.80;2.85;;;25.90;99.90;;;;;;5033804;28;20029;-48
2022/11/29 12:20:10;;;;;;;6.45;1.85;;;25.90;99.90;;;;;;5032985;28;20373;-49
2022/11/29 12:22:50;;;;;;;5.90;2.40;;;25.90;99.90;;;;;;5034129;28;20470;-50
2022/11/29 12:25:29;;;;;;;5.15;2.15;;;25.80;99.90;;;;;;5034061;28;20395;-50
2022/11/29 12:27:54;;;;;;;8.77;1.35;;;25.80;99.90;;;;;;5034398;28;20036;-49
2022/11/29 12:30:20;;;;;;;4.70;1.20;;;25.60;99.90;;;;;;5034158;28;20025;-49
2022/11/29 12:33:07;;;;;;;6.70;1.15;;;25.40;99.90;;;;;;5033895;28;20038;-49
2022/11/29 12:36:12;;;;;;;4.28;1.60;;;25.30;99.90;;;;;;5033800;28;20026;-50
2022/11/29 12:38:53;;;;;;;3.30;1.02;;;25.10;99.90;;;;;;5034010;28;20030;-50
2022/11/29 12:41:18;;;;;;;3.53;1.98;;;25.00;99.90;;;;;;5033631;28;20045;-49
2022/11/29 12:44:18;;;;;;;4.95;1.45;;;25.00;99.90;;;;;;5033669;28;20056;-50
2022/11/29 12:46:53;;;;;;;5.72;2.30;;;24.90;99.90;;;;;;5033705;28;20428;-49
2022/11/29 12:49:45;;;;;;;3.85;0.90;;;24.80;99.90;;;;;;5033682;28;20017;-49
2022/11/29 12:52:29;;;;;;;4.47;1.20;;;24.70;99.90;;;;;;5010532;28;20050;-49
2022/11/29 12:55:15;;;;;;;2.75;0.70;;;24.60;99.90;;;;;;5022932;28;20585;-49
2022/11/29 12:57:51;;;;;;;4.25;1.10;;;24.50;99.90;;;;;;5030840;28;20120;-49
2022/11/29 13:00:20;;;;;;;7.28;3.20;;;24.40;99.90;;;;;;5026615;28;20065;-48
2022/11/29 13:03:12;;;;;;;5.05;1.75;;;24.30;99.90;;;;;;5032920;28;20076;-48
2022/11/29 13:05:52;;;;;;;3.22;1.42;;;24.30;99.90;;;;;;5033186;28;20119;-49
2022/11/29 13:08:51;;;;;;;6.05;1.75;;;24.30;99.90;;;;;;5030837;28;20619;-48
2022/11/29 13:11:53;;;;;;;6.10;1.70;;;24.30;99.90;;;;;;5031757;28;20485;-48
2022/11/29 13:14:38;;;;;;;5.90;2.03;;;24.30;99.90;;;;;;5019796;28;20494;-49
2022/11/29 13:17:10;;;;;;;6.00;1.40;;;24.30;99.90;;;;;;5033072;28;20116;-50
2022/11/29 13:19:52;;;;;;;3.58;1.52;;;24.30;99.90;;;;;;5033111;28;20478;-48
2022/11/29 13:22:23;;;;;;;11.80;5.45;;;24.30;99.90;;;;;;5020647;28;20029;-49
2022/11/29 13:24:56;;;;;;;9.85;3.25;;;24.20;99.90;;;;;;5028277;28;20044;-48
2022/11/29 13:27:41;;;;;;;4.18;1.33;;;24.20;99.90;;;;;;5030333;28;20025;-48
2022/11/29 13:30:12;;;;;;;6.90;2.83;;;24.10;99.90;;;;;;5031312;28;20029;-49
2022/11/29 13:32:50;;;;;;;3.78;1.35;;;24.10;99.90;;;;;;5027745;28;20038;-50
2022/11/29 13:35:16;;;;;;;7.40;2.15;;;24.10;99.90;;;;;;5011974;28;20025;-49
2022/11/29 13:38:06;;;;;;;5.03;0.90;;;24.00;99.90;;;;;;5011492;28;20030;-50